createdAt,value
2023-03-24T00:00:51.581Z,968.19
2023-03-24T00:01:51.565Z,968.25
2023-03-24T00:02:51.694Z,968.20
2023-03-24T00:03:51.634Z,968.16
2023-03-24T00:04:51.549Z,968.13
2023-03-24T00:05:51.512Z,968.18
2023-03-24T00:06:51.497Z,968.14
2023-03-24T00:07:55.226Z,968.15
2023-03-24T00:08:51.476Z,968.17
2023-03-24T00:09:51.456Z,968.17
2023-03-24T00:10:51.435Z,968.12
2023-03-24T00:11:51.423Z,968.12
2023-03-24T00:12:51.427Z,968.04
2023-03-24T00:13:51.422Z,967.99
2023-03-24T00:14:51.381Z,967.97
2023-03-24T00:15:51.401Z,967.95
2023-03-24T00:16:51.363Z,967.97
2023-03-24T00:17:51.360Z,967.98
2023-03-24T00:18:51.341Z,968.03
2023-03-24T00:19:51.322Z,968.04
2023-03-24T00:20:51.327Z,967.97
2023-03-24T00:21:51.295Z,967.95
2023-03-24T00:22:51.349Z,968.00
2023-03-24T00:23:51.270Z,967.96
2023-03-24T00:24:51.252Z,968.00
2023-03-24T00:25:51.593Z,967.99
2023-03-24T00:26:51.219Z,968.00
2023-03-24T00:27:51.220Z,967.99
2023-03-24T00:28:51.195Z,967.96
2023-03-24T00:29:51.187Z,967.93
2023-03-24T00:30:51.177Z,967.94
2023-03-24T00:31:51.165Z,967.87
2023-03-24T00:32:51.190Z,967.86
2023-03-24T00:33:51.347Z,967.80
2023-03-24T00:34:51.118Z,967.78
2023-03-24T00:35:51.131Z,967.78
2023-03-24T00:36:51.119Z,967.85
2023-03-24T00:37:51.081Z,967.77
2023-03-24T00:38:51.064Z,967.72
2023-03-24T00:39:51.054Z,967.77
2023-03-24T00:40:51.041Z,967.74
2023-03-24T00:41:51.035Z,967.65
2023-03-24T00:42:51.042Z,967.72
2023-03-24T00:43:51.011Z,967.74
2023-03-24T00:44:50.993Z,967.69
2023-03-24T00:45:50.976Z,967.65
2023-03-24T00:46:50.998Z,967.68
2023-03-24T00:47:50.983Z,967.72
2023-03-24T00:48:50.936Z,967.66
2023-03-24T00:49:50.928Z,967.61
2023-03-24T00:50:50.907Z,967.57
2023-03-24T00:51:50.893Z,967.60
2023-03-24T00:52:50.903Z,967.49
2023-03-24T00:53:50.868Z,967.49
2023-03-24T00:54:50.852Z,967.48
2023-03-24T00:55:50.841Z,967.37
2023-03-24T00:56:50.839Z,967.36
2023-03-24T00:57:51.278Z,967.41
2023-03-24T00:58:50.807Z,967.38
2023-03-24T00:59:50.798Z,967.32
2023-03-24T01:00:50.787Z,967.34
2023-03-24T01:01:50.780Z,967.37
2023-03-24T01:02:50.764Z,967.28
2023-03-24T01:03:50.773Z,967.30
2023-03-24T01:04:50.715Z,967.26
2023-03-24T01:05:50.709Z,967.31
2023-03-24T01:06:50.694Z,967.27
2023-03-24T01:07:50.686Z,967.17
2023-03-24T01:08:50.687Z,967.19
2023-03-24T01:09:50.648Z,967.09
2023-03-24T01:10:50.629Z,967.11
2023-03-24T01:11:50.621Z,967.02
2023-03-24T01:12:50.606Z,967.06
2023-03-24T01:13:50.613Z,967.04
2023-03-24T01:14:50.584Z,966.98
2023-03-24T01:15:50.571Z,967.02
2023-03-24T01:16:50.558Z,967.01
2023-03-24T01:17:50.654Z,966.95
2023-03-24T01:18:50.524Z,966.90
2023-03-24T01:19:50.516Z,966.90
2023-03-24T01:20:50.502Z,966.82
2023-03-24T01:21:50.498Z,966.87
2023-03-24T01:22:50.473Z,966.90
2023-03-24T01:23:50.472Z,966.84
2023-03-24T01:24:50.476Z,966.84
2023-03-24T01:25:50.438Z,966.83
2023-03-24T01:26:50.675Z,966.88
2023-03-24T01:27:50.556Z,966.86
2023-03-24T01:28:50.600Z,966.87
2023-03-24T01:29:50.381Z,966.86
2023-03-24T01:30:50.363Z,966.86
2023-03-24T01:31:50.411Z,966.90
2023-03-24T01:32:50.367Z,966.75
2023-03-24T01:33:50.331Z,966.86
2023-03-24T01:34:50.310Z,966.75
2023-03-24T01:35:50.424Z,966.84
2023-03-24T01:36:50.296Z,966.82
2023-03-24T01:37:50.353Z,966.73
2023-03-24T01:38:50.266Z,966.74
2023-03-24T01:39:50.250Z,966.75
2023-03-24T01:40:50.275Z,966.78
2023-03-24T01:41:50.225Z,966.79
2023-03-24T01:42:50.208Z,966.75
2023-03-24T01:43:50.199Z,966.73
2023-03-24T01:44:50.214Z,966.75
2023-03-24T01:45:50.192Z,966.75
2023-03-24T01:46:50.151Z,966.71
2023-03-24T01:47:50.160Z,966.66
2023-03-24T01:48:50.139Z,966.72
2023-03-24T01:49:50.113Z,966.66
2023-03-24T01:50:50.108Z,966.65
2023-03-24T01:51:50.084Z,966.74
2023-03-24T01:52:50.071Z,966.69
2023-03-24T01:53:50.063Z,966.69
2023-03-24T01:54:50.073Z,966.73
2023-03-24T01:55:50.037Z,966.69
2023-03-24T01:56:50.130Z,966.74
2023-03-24T01:57:50.008Z,966.75
2023-03-24T01:58:49.992Z,966.81
2023-03-24T01:59:49.986Z,966.79
2023-03-24T02:00:50.014Z,966.81
2023-03-24T02:01:49.958Z,966.80
2023-03-24T02:02:49.980Z,966.73
2023-03-24T02:03:49.930Z,966.71
2023-03-24T02:04:49.917Z,966.67
2023-03-24T02:05:49.904Z,966.71
2023-03-24T02:06:49.885Z,966.70
2023-03-24T02:07:49.874Z,966.65
2023-03-24T02:08:49.884Z,966.82
2023-03-24T02:09:49.845Z,966.70
2023-03-24T02:10:49.830Z,966.71
2023-03-24T02:11:49.827Z,966.76
2023-03-24T02:12:49.852Z,966.78
2023-03-24T02:13:49.799Z,966.87
2023-03-24T02:14:49.787Z,966.81
2023-03-24T02:15:49.775Z,966.79
2023-03-24T02:16:49.757Z,966.70
2023-03-24T02:17:49.810Z,966.74
2023-03-24T02:18:49.732Z,966.75
2023-03-24T02:19:49.716Z,966.75
2023-03-24T02:20:49.703Z,966.71
2023-03-24T02:21:49.689Z,966.74
2023-03-24T02:22:49.924Z,966.68
2023-03-24T02:23:49.675Z,966.75
2023-03-24T02:24:49.650Z,966.66
2023-03-24T02:25:49.639Z,966.71
2023-03-24T02:26:49.624Z,966.71
2023-03-24T02:27:49.611Z,966.66
2023-03-24T02:28:49.659Z,966.72
2023-03-24T02:29:49.579Z,966.56
2023-03-24T02:30:49.567Z,966.65
2023-03-24T02:31:49.566Z,966.70
2023-03-24T02:32:49.555Z,966.73
2023-03-24T02:33:49.533Z,966.70
2023-03-24T02:34:49.518Z,966.68
2023-03-24T02:35:49.562Z,966.73
2023-03-24T02:36:49.491Z,966.69
2023-03-24T02:37:49.478Z,966.67
2023-03-24T02:38:49.478Z,966.65
2023-03-24T02:39:49.455Z,966.64
2023-03-24T02:40:49.443Z,966.65
2023-03-24T02:41:49.420Z,966.55
2023-03-24T02:42:49.405Z,966.62
2023-03-24T02:43:49.594Z,966.58
2023-03-24T02:44:49.403Z,966.51
2023-03-24T02:45:49.403Z,966.55
2023-03-24T02:46:49.358Z,966.52
2023-03-24T02:47:49.401Z,966.56
2023-03-24T02:48:49.333Z,966.53
2023-03-24T02:49:49.307Z,966.52
2023-03-24T02:50:49.360Z,966.48
2023-03-24T02:51:49.284Z,966.45
2023-03-24T02:52:49.265Z,966.40
2023-03-24T02:53:49.266Z,966.43
2023-03-24T02:54:49.256Z,966.40
2023-03-24T02:55:49.231Z,966.39
2023-03-24T02:56:49.236Z,966.48
2023-03-24T02:57:49.208Z,966.42
2023-03-24T02:58:49.200Z,966.43
2023-03-24T02:59:49.176Z,966.46
2023-03-24T03:00:49.194Z,966.38
2023-03-24T03:01:49.259Z,966.46
2023-03-24T03:02:49.146Z,966.51
2023-03-24T03:03:49.142Z,966.46
2023-03-24T03:04:49.111Z,966.46
2023-03-24T03:05:49.097Z,966.42
2023-03-24T03:06:49.235Z,966.44
2023-03-24T03:07:49.074Z,966.40
2023-03-24T03:08:49.153Z,966.39
2023-03-24T03:09:49.046Z,966.40
2023-03-24T03:10:49.033Z,966.38
2023-03-24T03:11:49.034Z,966.40
2023-03-24T03:12:49.465Z,966.31
2023-03-24T03:13:49.092Z,966.39
2023-03-24T03:14:48.983Z,966.30
2023-03-24T03:15:48.973Z,966.27
2023-03-24T03:16:49.218Z,966.23
2023-03-24T03:17:49.036Z,966.27
2023-03-24T03:18:48.922Z,966.30
2023-03-24T03:19:48.972Z,966.30
2023-03-24T03:20:48.897Z,966.25
2023-03-24T03:21:48.888Z,966.25
2023-03-24T03:22:48.971Z,966.13
2023-03-24T03:23:48.863Z,966.19
2023-03-24T03:24:48.840Z,966.17
2023-03-24T03:25:48.986Z,966.21
2023-03-24T03:26:48.812Z,966.19
2023-03-24T03:27:48.801Z,966.17
2023-03-24T03:28:48.945Z,966.14
2023-03-24T03:29:48.778Z,966.18
2023-03-24T03:30:48.774Z,966.18
2023-03-24T03:31:49.056Z,966.19
2023-03-24T03:32:48.819Z,966.14
2023-03-24T03:33:48.924Z,966.15
2023-03-24T03:34:48.725Z,966.14
2023-03-24T03:35:48.781Z,966.18
2023-03-24T03:36:48.687Z,966.15
2023-03-24T03:37:48.673Z,966.14
2023-03-24T03:38:48.908Z,966.14
2023-03-24T03:39:48.645Z,966.11
2023-03-24T03:40:48.635Z,966.04
2023-03-24T03:41:48.627Z,966.11
2023-03-24T03:42:48.607Z,966.09
2023-03-24T03:43:48.595Z,966.08
2023-03-24T03:44:48.587Z,966.13
2023-03-24T03:45:48.589Z,966.14
2023-03-24T03:46:48.552Z,966.16
2023-03-24T03:47:48.583Z,966.14
2023-03-24T03:48:48.580Z,966.19
2023-03-24T03:49:48.517Z,966.10
2023-03-24T03:50:48.507Z,966.22
2023-03-24T03:51:48.485Z,966.21
2023-03-24T03:52:48.471Z,966.22
2023-03-24T03:53:48.463Z,966.22
2023-03-24T03:54:48.448Z,966.20
2023-03-24T03:55:48.434Z,966.17
2023-03-24T03:56:48.454Z,966.22
2023-03-24T03:57:48.410Z,966.27
2023-03-24T03:58:48.396Z,966.18
2023-03-24T03:59:48.395Z,966.24
2023-03-24T04:00:48.367Z,966.20
2023-03-24T04:01:48.416Z,966.17
2023-03-24T04:02:48.408Z,966.31
2023-03-24T04:03:48.362Z,966.23
2023-03-24T04:04:53.205Z,966.11
2023-03-24T04:05:49.316Z,966.14
2023-03-24T04:06:48.287Z,966.08
2023-03-24T04:07:48.270Z,966.16
2023-03-24T04:08:48.256Z,966.12
2023-03-24T04:09:48.251Z,966.13
2023-03-24T04:10:48.233Z,966.16
2023-03-24T04:11:48.237Z,966.06
2023-03-24T04:12:48.210Z,966.00
2023-03-24T04:13:48.188Z,966.06
2023-03-24T04:14:48.177Z,965.97
2023-03-24T04:15:48.446Z,966.01
2023-03-24T04:16:48.198Z,966.00
2023-03-24T04:17:48.155Z,965.91
2023-03-24T04:18:48.122Z,965.86
2023-03-24T04:19:48.124Z,965.84
2023-03-24T04:20:48.120Z,965.90
2023-03-24T04:21:48.082Z,965.93
2023-03-24T04:22:48.068Z,965.96
2023-03-24T04:23:48.059Z,965.97
2023-03-24T04:24:48.047Z,966.04
2023-03-24T04:25:48.032Z,966.09
2023-03-24T04:26:48.017Z,965.97
2023-03-24T04:27:48.012Z,965.88
2023-03-24T04:28:47.986Z,965.90
2023-03-24T04:29:47.982Z,965.87
2023-03-24T04:30:47.966Z,965.99
2023-03-24T04:31:48.014Z,966.00
2023-03-24T04:32:47.961Z,965.98
2023-03-24T04:33:47.930Z,965.95
2023-03-24T04:34:47.915Z,965.92
2023-03-24T04:35:47.997Z,965.95
2023-03-24T04:36:47.906Z,965.94
2023-03-24T04:37:47.871Z,965.95
2023-03-24T04:38:47.899Z,965.99
2023-03-24T04:39:47.845Z,965.99
2023-03-24T04:40:47.926Z,965.96
2023-03-24T04:41:47.816Z,965.93
2023-03-24T04:42:47.807Z,966.00
2023-03-24T04:43:47.798Z,965.97
2023-03-24T04:44:47.773Z,965.99
2023-03-24T04:45:48.041Z,966.04
2023-03-24T04:46:47.750Z,966.03
2023-03-24T04:47:47.770Z,966.01
2023-03-24T04:48:47.724Z,966.05
2023-03-24T04:49:47.705Z,966.08
2023-03-24T04:50:47.707Z,966.12
2023-03-24T04:51:47.686Z,966.22
2023-03-24T04:52:47.689Z,966.16
2023-03-24T04:53:47.651Z,966.26
2023-03-24T04:54:47.637Z,966.28
2023-03-24T04:55:47.625Z,966.31
2023-03-24T04:56:47.885Z,966.29
2023-03-24T04:57:47.605Z,966.33
2023-03-24T04:58:47.593Z,966.30
2023-03-24T04:59:47.585Z,966.43
2023-03-24T05:00:47.583Z,966.44
2023-03-24T05:01:47.548Z,966.45
2023-03-24T05:02:47.558Z,966.45
2023-03-24T05:03:47.541Z,966.49
2023-03-24T05:04:47.510Z,966.49
2023-03-24T05:05:47.491Z,966.50
2023-03-24T05:06:47.476Z,966.54
2023-03-24T05:07:47.464Z,966.52
2023-03-24T05:08:47.581Z,966.56
2023-03-24T05:12:15.039Z,966.77
2023-03-24T05:13:15.028Z,966.70
2023-03-24T05:14:15.015Z,966.88
2023-03-24T05:15:14.998Z,966.94
2023-03-24T05:16:15.119Z,966.93
2023-03-24T05:17:14.986Z,967.00
2023-03-24T05:18:14.965Z,966.96
2023-03-24T05:19:14.944Z,967.06
2023-03-24T05:20:14.934Z,967.07
2023-03-24T05:21:14.919Z,967.11
2023-03-24T05:22:15.108Z,967.18
2023-03-24T05:23:14.900Z,967.05
2023-03-24T05:24:14.909Z,967.10
2023-03-24T05:25:14.862Z,967.20
2023-03-24T05:26:14.849Z,967.24
2023-03-24T05:27:14.936Z,967.30
2023-03-24T05:28:14.819Z,967.33
2023-03-24T05:29:14.812Z,967.26
2023-03-24T05:30:14.797Z,967.32
2023-03-24T05:31:14.860Z,967.35
2023-03-24T05:32:14.769Z,967.42
2023-03-24T05:33:14.809Z,967.40
2023-03-24T05:35:42.032Z,967.46
2023-03-24T05:36:41.978Z,967.49
2023-03-24T05:37:41.997Z,967.50
2023-03-24T05:38:41.958Z,967.51
2023-03-24T05:39:41.987Z,967.51
2023-03-24T05:40:41.931Z,967.48
2023-03-24T05:41:41.912Z,967.56
2023-03-24T05:42:42.239Z,967.47
2023-03-24T05:43:41.883Z,967.53
2023-03-24T05:44:41.867Z,967.53
2023-03-24T05:45:41.856Z,967.51
2023-03-24T05:46:41.872Z,967.49
2023-03-24T05:47:41.870Z,967.56
2023-03-24T05:48:41.829Z,967.57
2023-03-24T05:49:41.793Z,967.58
2023-03-24T05:50:41.788Z,967.65
2023-03-24T05:51:41.770Z,967.62
2023-03-24T05:52:41.757Z,967.63
2023-03-24T05:53:41.742Z,967.55
2023-03-24T05:54:41.735Z,967.50
2023-03-24T05:55:41.835Z,967.50
2023-03-24T05:56:41.727Z,967.52
2023-03-24T05:57:41.700Z,967.54
2023-03-24T05:58:41.677Z,967.52
2023-03-24T05:59:41.669Z,967.46
2023-03-24T06:00:41.643Z,967.49
2023-03-24T06:01:41.640Z,967.46
2023-03-24T06:02:41.699Z,967.50
2023-03-24T06:03:41.679Z,967.51
2023-03-24T06:04:41.638Z,967.50
2023-03-24T06:05:41.586Z,967.49
2023-03-24T06:06:41.564Z,967.48
2023-03-24T06:07:41.557Z,967.49
2023-03-24T06:08:41.537Z,967.47
2023-03-24T06:09:41.528Z,967.53
2023-03-24T06:10:41.510Z,967.39
2023-03-24T06:11:41.539Z,967.52
2023-03-24T06:12:41.528Z,967.45
2023-03-24T06:13:41.476Z,967.49
2023-03-24T06:14:41.487Z,967.48
2023-03-24T06:15:41.532Z,967.51
2023-03-24T06:16:41.431Z,967.52
2023-03-24T06:17:41.442Z,967.53
2023-03-24T06:18:41.402Z,967.52
2023-03-24T06:19:41.391Z,967.60
2023-03-24T06:20:41.381Z,967.59
2023-03-24T06:21:41.359Z,967.56
2023-03-24T06:22:41.349Z,967.60
2023-03-24T06:23:41.544Z,967.54
2023-03-24T06:24:41.331Z,967.54
2023-03-24T06:25:41.318Z,967.50
2023-03-24T06:26:41.298Z,967.56
2023-03-24T06:27:41.306Z,967.55
2023-03-24T06:28:41.262Z,967.52
2023-03-24T06:29:41.252Z,967.46
2023-03-24T06:30:41.239Z,967.50
2023-03-24T06:31:41.224Z,967.50
2023-03-24T06:32:41.230Z,967.51
2023-03-24T06:33:41.194Z,967.45
2023-03-24T06:34:41.192Z,967.44
2023-03-24T06:35:41.201Z,967.46
2023-03-24T06:36:41.172Z,967.48
2023-03-24T06:37:41.146Z,967.52
2023-03-24T06:38:41.132Z,967.47
2023-03-24T06:39:41.119Z,967.34
2023-03-24T06:40:41.117Z,967.47
2023-03-24T06:41:41.088Z,967.51
2023-03-24T06:42:41.084Z,967.45
2023-03-24T06:43:41.106Z,967.39
2023-03-24T06:44:41.047Z,967.48
2023-03-24T06:45:41.039Z,967.52
2023-03-24T06:46:41.050Z,967.52
2023-03-24T06:47:41.049Z,967.42
2023-03-24T06:48:41.002Z,967.50
2023-03-24T06:49:41.089Z,967.46
2023-03-24T06:50:41.338Z,967.55
2023-03-24T06:51:40.952Z,967.59
2023-03-24T06:52:40.939Z,967.45
2023-03-24T06:53:41.077Z,967.53
2023-03-24T06:54:42.104Z,967.59
2023-03-24T06:55:40.914Z,967.55
2023-03-24T06:56:40.929Z,967.55
2023-03-24T06:57:41.125Z,967.63
2023-03-24T06:58:40.862Z,967.71
2023-03-24T06:59:40.869Z,967.64
2023-03-24T07:00:41.090Z,967.64
2023-03-24T07:01:40.833Z,967.67
2023-03-24T07:02:40.885Z,967.74
2023-03-24T07:03:40.927Z,967.88
2023-03-24T07:04:40.783Z,967.86
2023-03-24T07:05:40.766Z,967.84
2023-03-24T07:06:58.169Z,967.88
2023-03-24T07:08:41.746Z,967.88
2023-03-24T07:09:40.717Z,967.89
2023-03-24T07:10:40.695Z,967.87
2023-03-24T07:11:40.686Z,967.93
2023-03-24T07:12:40.668Z,967.95
2023-03-24T07:13:40.669Z,967.97
2023-03-24T07:14:40.637Z,968.04
2023-03-24T07:15:40.672Z,968.07
2023-03-24T07:16:40.652Z,967.99
2023-03-24T07:17:40.663Z,968.01
2023-03-24T07:18:40.592Z,968.01
2023-03-24T07:19:40.575Z,968.03
2023-03-24T07:20:40.563Z,968.03
2023-03-24T07:21:40.549Z,968.08
2023-03-24T07:22:40.537Z,968.05
2023-03-24T07:23:40.516Z,968.06
2023-03-24T07:24:40.501Z,968.04
2023-03-24T07:25:40.486Z,968.10
2023-03-24T07:26:40.475Z,968.17
2023-03-24T07:27:42.735Z,968.26
2023-03-24T07:28:40.458Z,968.17
2023-03-24T07:29:40.438Z,968.11
2023-03-24T07:30:41.223Z,968.14
2023-03-24T07:31:40.450Z,968.12
2023-03-24T07:32:40.426Z,968.15
2023-03-24T07:33:40.376Z,968.20
2023-03-24T07:34:40.366Z,968.22
2023-03-24T07:35:40.409Z,968.22
2023-03-24T07:36:40.344Z,968.16
2023-03-24T07:37:40.324Z,968.24
2023-03-24T07:38:40.314Z,968.26
2023-03-24T07:39:40.303Z,968.23
2023-03-24T07:40:40.289Z,968.24
2023-03-24T07:41:40.283Z,968.23
2023-03-24T07:42:40.261Z,968.29
2023-03-24T07:43:40.248Z,968.31
2023-03-24T07:44:40.234Z,968.23
2023-03-24T07:45:40.254Z,968.22
2023-03-24T07:46:40.207Z,968.24
2023-03-24T07:47:40.248Z,968.28
2023-03-24T07:48:40.178Z,968.25
2023-03-24T07:49:40.163Z,968.33
2023-03-24T07:50:40.156Z,968.30
2023-03-24T07:51:42.231Z,968.35
2023-03-24T07:52:40.122Z,968.28
2023-03-24T07:53:40.105Z,968.30
2023-03-24T07:54:40.096Z,968.34
2023-03-24T07:55:40.082Z,968.34
2023-03-24T07:56:40.187Z,968.32
2023-03-24T07:57:40.058Z,968.33
2023-03-24T07:58:40.073Z,968.27
2023-03-24T07:59:40.030Z,968.24
2023-03-24T08:00:40.012Z,968.36
2023-03-24T08:01:40.428Z,968.33
2023-03-24T08:02:40.071Z,968.34
2023-03-24T08:03:40.193Z,968.36
2023-03-24T08:04:40.020Z,968.37
2023-03-24T08:05:39.950Z,968.43
2023-03-24T08:06:39.936Z,968.44
2023-03-24T08:07:42.490Z,968.46
2023-03-24T08:08:39.908Z,968.50
2023-03-24T08:09:39.896Z,968.42
2023-03-24T08:10:39.884Z,968.43
2023-03-24T08:11:39.861Z,968.48
2023-03-24T08:12:39.851Z,968.44
2023-03-24T08:13:39.840Z,968.53
2023-03-24T08:14:39.831Z,968.50
2023-03-24T08:15:39.811Z,968.50
2023-03-24T08:16:39.819Z,968.54
2023-03-24T08:17:39.827Z,968.60
2023-03-24T08:18:39.767Z,968.57
2023-03-24T08:19:52.026Z,968.57
2023-03-24T08:20:40.788Z,968.55
2023-03-24T08:21:39.738Z,968.57
2023-03-24T08:22:39.716Z,968.69
2023-03-24T08:23:39.702Z,968.54
2023-03-24T08:24:39.688Z,968.54
2023-03-24T08:25:39.677Z,968.51
2023-03-24T08:26:39.663Z,968.50
2023-03-24T08:27:39.909Z,968.57
2023-03-24T08:28:39.630Z,968.52
2023-03-24T08:29:39.618Z,968.44
2023-03-24T08:30:39.641Z,968.43
2023-03-24T08:31:39.593Z,968.49
2023-03-24T08:32:39.623Z,968.44
2023-03-24T08:33:39.587Z,968.43
2023-03-24T08:34:39.567Z,968.43
2023-03-24T08:35:39.605Z,968.37
2023-03-24T08:36:39.518Z,968.40
2023-03-24T08:37:39.523Z,968.34
2023-03-24T08:38:39.488Z,968.40
2023-03-24T08:39:39.497Z,968.38
2023-03-24T08:40:39.469Z,968.31
2023-03-24T08:41:39.453Z,968.37
2023-03-24T08:42:39.444Z,968.36
2023-03-24T08:43:39.452Z,968.28
2023-03-24T08:44:39.412Z,968.31
2023-03-24T08:45:39.408Z,968.19
2023-03-24T08:46:39.458Z,968.09
2023-03-24T08:47:39.397Z,967.98
2023-03-24T08:48:39.356Z,967.97
2023-03-24T08:49:39.343Z,967.88
2023-03-24T08:50:39.337Z,967.82
2023-03-24T08:51:39.344Z,967.86
2023-03-24T08:52:39.301Z,967.78
2023-03-24T08:53:39.287Z,967.78
2023-03-24T08:54:39.279Z,967.66
2023-03-24T08:55:39.254Z,967.59
2023-03-24T08:56:39.261Z,967.67
2023-03-24T08:57:39.226Z,967.64
2023-03-24T08:58:39.223Z,967.60
2023-03-24T08:59:39.207Z,967.60
2023-03-24T09:00:39.190Z,967.65
2023-03-24T09:01:39.215Z,967.62
2023-03-24T09:02:39.214Z,967.70
2023-03-24T09:03:39.148Z,967.85
2023-03-24T09:04:39.307Z,967.94
2023-03-24T09:05:44.730Z,967.94
2023-03-24T09:06:39.357Z,968.00
2023-03-24T09:07:39.124Z,968.05
2023-03-24T09:08:39.282Z,968.04
2023-03-24T09:09:39.061Z,968.06
2023-03-24T09:10:39.308Z,967.98
2023-03-24T09:11:39.038Z,967.97
2023-03-24T09:12:39.033Z,967.98
2023-03-24T09:13:39.007Z,967.96
2023-03-24T09:14:39.008Z,967.98
2023-03-24T09:15:39.013Z,967.88
2023-03-24T09:16:39.086Z,967.98
2023-03-24T09:17:38.994Z,967.86
2023-03-24T09:18:38.944Z,967.94
2023-03-24T09:19:38.931Z,967.89
2023-03-24T09:20:38.920Z,967.90
2023-03-24T09:21:38.904Z,967.75
2023-03-24T09:22:38.888Z,967.80
2023-03-24T09:23:38.897Z,967.77
2023-03-24T09:24:38.863Z,967.63
2023-03-24T09:25:38.842Z,967.57
2023-03-24T09:26:38.837Z,967.60
2023-03-24T09:27:38.817Z,967.62
2023-03-24T09:28:38.810Z,967.69
2023-03-24T09:29:38.789Z,967.78
2023-03-24T09:30:38.785Z,967.84
2023-03-24T09:31:38.800Z,967.79
2023-03-24T09:32:38.794Z,967.81
2023-03-24T09:33:38.730Z,967.90
2023-03-24T09:34:38.720Z,967.85
2023-03-24T09:35:38.727Z,967.79
2023-03-24T09:36:38.694Z,967.90
2023-03-24T09:37:38.689Z,967.77
2023-03-24T09:38:38.670Z,967.74
2023-03-24T09:39:38.684Z,967.74
2023-03-24T09:40:38.653Z,967.63
2023-03-24T09:41:38.620Z,967.55
2023-03-24T09:42:38.790Z,967.55
2023-03-24T09:43:38.605Z,967.46
2023-03-24T09:44:38.589Z,967.58
2023-03-24T09:45:38.569Z,967.71
2023-03-24T09:46:38.570Z,967.85
2023-03-24T09:47:38.575Z,967.73
2023-03-24T09:48:38.538Z,967.78
2023-03-24T09:49:38.517Z,967.71
2023-03-24T09:50:38.511Z,967.71
2023-03-24T09:51:38.483Z,967.62
2023-03-24T09:52:38.480Z,967.65
2023-03-24T09:53:38.465Z,967.72
2023-03-24T09:54:38.453Z,967.65
2023-03-24T09:55:38.459Z,967.68
2023-03-24T09:56:38.445Z,967.55
2023-03-24T09:57:38.418Z,967.50
2023-03-24T09:58:38.394Z,967.46
2023-03-24T09:59:38.385Z,967.42
2023-03-24T10:00:38.410Z,967.32
2023-03-24T10:01:38.359Z,967.30
2023-03-24T10:02:38.453Z,967.30
2023-03-24T10:03:38.418Z,967.39
2023-03-24T10:04:38.320Z,967.37
2023-03-24T10:05:38.305Z,967.42
2023-03-24T10:06:38.287Z,967.39
2023-03-24T10:07:38.275Z,967.32
2023-03-24T10:08:38.265Z,967.42
2023-03-24T10:09:38.249Z,967.42
2023-03-24T10:10:38.245Z,967.41
2023-03-24T10:11:38.251Z,967.47
2023-03-24T10:12:38.208Z,967.50
2023-03-24T10:13:38.196Z,967.61
2023-03-24T10:14:38.181Z,967.60
2023-03-24T10:15:38.472Z,967.55
2023-03-24T10:16:38.196Z,967.58
2023-03-24T10:17:38.187Z,967.49
2023-03-24T10:18:38.128Z,967.49
2023-03-24T10:19:38.121Z,967.41
2023-03-24T10:20:38.100Z,967.46
2023-03-24T10:21:38.096Z,967.49
2023-03-24T10:22:38.087Z,967.45
2023-03-24T10:23:38.067Z,967.50
2023-03-24T10:24:38.501Z,967.48
2023-03-24T10:25:38.037Z,967.45
2023-03-24T10:26:38.031Z,967.44
2023-03-24T10:27:38.030Z,967.49
2023-03-24T10:28:38.004Z,967.48
2023-03-24T10:29:37.979Z,967.30
2023-03-24T10:30:37.977Z,967.61
2023-03-24T10:31:38.367Z,967.49
2023-03-24T10:32:38.009Z,967.51
2023-03-24T10:33:37.936Z,967.67
2023-03-24T10:34:37.929Z,967.54
2023-03-24T10:35:37.986Z,967.48
2023-03-24T10:36:37.999Z,967.54
2023-03-24T10:37:37.874Z,967.60
2023-03-24T10:38:37.868Z,967.54
2023-03-24T10:39:44.746Z,967.66
2023-03-24T10:40:38.869Z,967.65
2023-03-24T10:41:37.822Z,967.76
2023-03-24T10:42:37.808Z,967.67
2023-03-24T10:43:37.884Z,967.75
2023-03-24T10:44:37.782Z,967.98
2023-03-24T10:45:37.812Z,967.93
2023-03-24T10:46:37.843Z,967.86
2023-03-24T10:47:37.766Z,967.71
2023-03-24T10:48:37.728Z,967.74
2023-03-24T10:49:37.720Z,967.67
2023-03-24T10:50:37.698Z,967.69
2023-03-24T10:51:37.702Z,967.60
2023-03-24T10:52:37.675Z,967.74
2023-03-24T10:53:37.679Z,967.72
2023-03-24T10:54:37.645Z,967.86
2023-03-24T10:55:37.638Z,967.87
2023-03-24T10:56:37.640Z,967.93
2023-03-24T10:57:37.611Z,968.03
2023-03-24T10:58:37.622Z,967.92
2023-03-24T10:59:37.602Z,967.82
2023-03-24T11:00:39.902Z,967.90
2023-03-24T11:01:37.568Z,967.82
2023-03-24T11:02:37.610Z,967.81
2023-03-24T11:03:37.558Z,967.79
2023-03-24T11:04:37.515Z,967.87
2023-03-24T11:05:37.510Z,967.79
2023-03-24T11:06:37.492Z,967.69
2023-03-24T11:07:37.472Z,967.82
2023-03-24T11:08:37.473Z,967.80
2023-03-24T11:09:37.444Z,967.94
2023-03-24T11:10:37.429Z,967.86
2023-03-24T11:11:37.418Z,967.86
2023-03-24T11:12:37.395Z,967.92
2023-03-24T11:13:37.392Z,967.87
2023-03-24T11:14:37.370Z,967.93
2023-03-24T11:15:37.469Z,967.87
2023-03-24T11:16:37.385Z,968.13
2023-03-24T11:17:37.352Z,967.99
2023-03-24T11:18:37.325Z,968.05
2023-03-24T11:19:37.306Z,968.07
2023-03-24T11:20:37.316Z,968.05
2023-03-24T11:21:37.287Z,968.02
2023-03-24T11:22:37.266Z,968.06
2023-03-24T11:23:37.256Z,968.05
2023-03-24T11:24:37.238Z,968.19
2023-03-24T11:25:37.236Z,968.18
2023-03-24T11:26:37.224Z,968.08
2023-03-24T11:27:37.204Z,968.05
2023-03-24T11:28:37.180Z,968.02
2023-03-24T11:29:37.172Z,968.02
2023-03-24T11:30:37.184Z,968.01
2023-03-24T11:31:37.159Z,967.94
2023-03-24T11:32:37.155Z,968.04
2023-03-24T11:33:37.118Z,968.14
2023-03-24T11:34:37.109Z,967.99
2023-03-24T11:35:59.145Z,968.10
2023-03-24T11:36:38.123Z,968.05
2023-03-24T11:37:37.073Z,968.06
2023-03-24T11:38:37.068Z,968.01
2023-03-24T11:39:37.055Z,968.09
2023-03-24T11:40:37.032Z,968.03
2023-03-24T11:41:37.007Z,968.06
2023-03-24T11:42:36.995Z,968.08
2023-03-24T11:43:36.980Z,968.08
2023-03-24T11:44:36.966Z,967.97
2023-03-24T11:45:36.962Z,967.98
2023-03-24T11:46:36.967Z,968.03
2023-03-24T11:47:36.982Z,968.07
2023-03-24T11:48:36.910Z,967.93
2023-03-24T11:49:36.893Z,967.92
2023-03-24T11:50:36.893Z,967.78
2023-03-24T11:51:36.864Z,967.83
2023-03-24T11:52:36.858Z,967.71
2023-03-24T11:53:36.842Z,967.86
2023-03-24T11:54:36.850Z,967.93
2023-03-24T11:55:36.822Z,968.06
2023-03-24T11:56:36.830Z,967.88
2023-03-24T11:57:37.237Z,967.85
2023-03-24T11:58:36.775Z,967.96
2023-03-24T11:59:36.781Z,967.91
2023-03-24T12:00:36.749Z,967.90
2023-03-24T12:01:36.736Z,967.87
2023-03-24T12:02:36.775Z,967.88
2023-03-24T12:03:36.776Z,967.94
2023-03-24T12:04:36.691Z,967.93
2023-03-24T12:05:36.704Z,967.96
2023-03-24T12:06:36.669Z,967.86
2023-03-24T12:07:36.670Z,968.02
2023-03-24T12:08:36.643Z,967.86
2023-03-24T12:09:36.630Z,967.87
2023-03-24T12:10:36.609Z,967.92
2023-03-24T12:11:36.607Z,967.82
2023-03-24T12:12:36.588Z,967.92
2023-03-24T12:13:36.587Z,967.89
2023-03-24T12:14:36.607Z,967.95
2023-03-24T12:15:36.546Z,967.87
2023-03-24T12:16:39.302Z,967.88
2023-03-24T12:17:36.564Z,967.87
2023-03-24T12:18:36.505Z,967.92
2023-03-24T12:19:36.572Z,967.90
2023-03-24T12:20:36.526Z,967.99
2023-03-24T12:21:36.468Z,968.07
2023-03-24T12:22:38.531Z,967.93
2023-03-24T12:23:36.454Z,967.94
2023-03-24T12:24:36.673Z,968.08
2023-03-24T12:25:36.412Z,968.06
2023-03-24T12:26:36.393Z,967.95
2023-03-24T12:27:36.394Z,968.02
2023-03-24T12:28:36.369Z,967.99
2023-03-24T12:29:36.364Z,967.95
2023-03-24T12:30:36.342Z,968.00
2023-03-24T12:31:36.370Z,968.07
2023-03-24T12:32:36.366Z,968.09
2023-03-24T12:33:36.308Z,968.00